createdAt,value
2022-09-24T00:02:56.011Z,43.3
2022-09-24T00:08:14.501Z,42.5
2022-09-24T00:13:32.834Z,42.7
2022-09-24T00:18:51.066Z,43.1
2022-09-24T00:24:09.318Z,42.9
2022-09-24T00:29:28.144Z,42.5
2022-09-24T00:34:46.658Z,43.2
2022-09-24T00:40:04.846Z,42.6
2022-09-24T00:45:26.879Z,43.4
2022-09-24T00:50:45.109Z,43.4
2022-09-24T00:56:03.613Z,43.4
2022-09-24T01:01:22.030Z,43.4
2022-09-24T01:06:40.526Z,43.2
2022-09-24T01:11:59.267Z,43.3
2022-09-24T01:17:18.030Z,43.1
2022-09-24T01:22:36.260Z,42.5
2022-09-24T01:27:54.718Z,42.5
2022-09-24T01:33:13.204Z,42.5
2022-09-24T01:38:31.437Z,42.9
2022-09-24T01:43:50.174Z,43.2
2022-09-24T01:49:08.929Z,43.4
2022-09-24T01:54:27.712Z,43.4
2022-09-24T01:59:46.194Z,43
2022-09-24T02:05:04.955Z,42.6
2022-09-24T02:10:23.460Z,43.3
2022-09-24T02:15:41.582Z,43.7
2022-09-24T02:20:59.882Z,42.5
2022-09-24T02:26:17.858Z,43.4
2022-09-24T02:31:36.175Z,43.6
2022-09-24T02:36:54.750Z,42.9
2022-09-24T02:42:13.244Z,43.4
2022-09-24T02:47:31.151Z,42.6
2022-09-24T02:52:49.355Z,43.3
2022-09-24T02:58:07.667Z,43.2
2022-09-24T03:03:26.436Z,43.7
2022-09-24T03:08:45.194Z,43
2022-09-24T03:14:03.693Z,42.2
2022-09-24T03:19:21.880Z,43.3
2022-09-24T03:24:40.360Z,43
2022-09-24T03:29:58.593Z,43.4
2022-09-24T03:35:17.049Z,43.3
2022-09-24T03:40:36.134Z,42.5
2022-09-24T03:45:54.706Z,43.3
2022-09-24T03:51:13.174Z,43.3
2022-09-24T03:56:31.370Z,43.3
2022-09-24T04:01:50.206Z,42.5
2022-09-24T04:07:08.773Z,42.5
2022-09-24T04:12:27.253Z,41.9
2022-09-24T04:17:45.501Z,43.3
2022-09-24T04:23:03.955Z,42.8
2022-09-24T04:28:22.723Z,43
2022-09-24T04:33:41.512Z,42.4
2022-09-24T04:39:00.245Z,43.3
2022-09-24T04:44:18.737Z,42.4
2022-09-24T04:49:37.616Z,43.2
2022-09-24T04:54:55.818Z,42.3
2022-09-24T05:00:14.303Z,42.3
2022-09-24T05:05:32.812Z,43
2022-09-24T05:10:51.267Z,43.2
2022-09-24T05:16:09.848Z,42.8
2022-09-24T05:21:28.075Z,42.9
2022-09-24T05:26:46.535Z,42.4
2022-09-24T05:32:04.737Z,42
2022-09-24T05:37:23.181Z,42.8
2022-09-24T05:42:41.634Z,42
2022-09-24T05:48:00.673Z,42
2022-09-24T05:53:18.917Z,42.5
2022-09-24T05:58:37.360Z,41.7
2022-09-24T06:03:55.848Z,41.9
2022-09-24T06:09:14.157Z,41.6
2022-09-24T06:14:32.398Z,42.4
2022-09-24T06:19:50.882Z,42.4
2022-09-24T06:25:09.673Z,41.3
2022-09-24T06:30:28.139Z,41.5
2022-09-24T06:35:46.625Z,41.6
2022-09-24T06:41:05.297Z,41.5
2022-09-24T06:46:23.657Z,42.5
2022-09-24T06:51:42.250Z,42
2022-09-24T06:57:00.479Z,42.3
2022-09-24T07:02:18.829Z,41.4
2022-09-24T07:07:37.013Z,42.3
2022-09-24T07:12:55.762Z,41.5
2022-09-24T07:18:14.002Z,42.3
2022-09-24T07:23:32.481Z,42.3
2022-09-24T07:28:50.991Z,42.1
2022-09-24T07:34:09.647Z,41.5
2022-09-24T07:39:27.855Z,42.3
2022-09-24T07:44:46.122Z,41.9
2022-09-24T07:50:04.852Z,41.8
2022-09-24T07:55:23.340Z,41.8
2022-09-24T08:00:41.852Z,41.5
2022-09-24T08:06:00.314Z,41.5
2022-09-24T08:11:18.525Z,42.3
2022-09-24T08:16:36.757Z,41.6
2022-09-24T08:21:55.219Z,41.5
2022-09-24T08:27:17.965Z,41.5
2022-09-24T08:32:36.480Z,41.9
2022-09-24T08:37:54.661Z,41.5
2022-09-24T08:43:12.863Z,42.2
2022-09-24T08:48:31.044Z,41.4
2022-09-24T08:53:49.227Z,42.2
2022-09-24T08:59:07.438Z,41.5
2022-09-24T09:04:26.225Z,42
2022-09-24T09:09:44.692Z,41.3
2022-09-24T09:15:03.473Z,41.5
2022-09-24T09:20:22.289Z,41.4
2022-09-24T09:25:40.745Z,41.4
2022-09-24T09:30:59.541Z,41.3
2022-09-24T09:36:18.034Z,41.5
2022-09-24T09:41:35.919Z,41.8
2022-09-24T09:46:54.036Z,41.3
2022-09-24T09:52:12.907Z,41.4
2022-09-24T09:57:31.152Z,42.1
2022-09-24T10:02:50.261Z,42
2022-09-24T10:08:08.987Z,41.7
2022-09-24T10:13:27.157Z,41.9
2022-09-24T10:18:45.357Z,42
2022-09-24T10:24:04.020Z,42.1
2022-09-24T10:29:22.209Z,41
2022-09-24T10:34:40.697Z,41.2
2022-09-24T10:39:59.391Z,41.9
2022-09-24T10:45:17.926Z,41.9
2022-09-24T10:50:36.699Z,41.6
2022-09-24T10:55:55.480Z,42.1
2022-09-24T11:01:14.348Z,42.1
2022-09-24T11:06:33.080Z,41.9
2022-09-24T11:11:51.414Z,42
2022-09-24T11:17:09.951Z,41.9
2022-09-24T11:22:28.732Z,41.3
2022-09-24T11:27:47.248Z,42
2022-09-24T11:33:05.142Z,41.3
2022-09-24T11:38:23.916Z,41
2022-09-24T11:43:42.237Z,41
2022-09-24T11:49:00.414Z,41.4
2022-09-24T11:54:18.911Z,41.4
2022-09-24T11:59:37.692Z,41.6
2022-09-24T12:04:56.148Z,40.8
2022-09-24T12:10:14.627Z,40.9
2022-09-24T12:15:32.585Z,41.6
2022-09-24T12:20:51.328Z,41.6
2022-09-24T12:26:10.090Z,41
2022-09-24T12:31:29.084Z,41
2022-09-24T12:36:47.863Z,41.8
2022-09-24T12:42:06.629Z,40.9
2022-09-24T12:47:25.200Z,41.7
2022-09-24T12:52:43.687Z,41.6
2022-09-24T12:58:02.457Z,41.7
2022-09-24T13:03:20.965Z,42.1
2022-09-24T13:08:39.416Z,41.2
2022-09-24T13:13:57.915Z,41.1
2022-09-24T13:19:16.384Z,41.1
2022-09-24T13:24:35.172Z,41.5
2022-09-24T13:29:53.938Z,41.2
2022-09-24T13:35:13.686Z,41.2
2022-09-24T13:40:33.179Z,40.9
2022-09-24T13:45:51.732Z,41.2
2022-09-24T13:51:10.589Z,41.1
2022-09-24T13:56:28.788Z,41.2
2022-09-24T14:01:47.517Z,41.3
2022-09-24T14:07:05.842Z,41.9
2022-09-24T14:12:24.494Z,42
2022-09-24T14:17:42.423Z,41.2
2022-09-24T14:23:01.043Z,41.3
2022-09-24T14:28:18.936Z,41.8
2022-09-24T14:33:37.128Z,42
2022-09-24T14:38:55.366Z,41.8
2022-09-24T14:44:13.827Z,41.3
2022-09-24T14:49:32.607Z,42.2
2022-09-24T14:54:51.106Z,41.3
2022-09-24T15:00:09.568Z,42.2
2022-09-24T15:05:28.179Z,41.7
2022-09-24T15:10:46.595Z,41.4
2022-09-24T15:16:05.086Z,41.3
2022-09-24T15:21:23.614Z,42
2022-09-24T15:26:42.138Z,41.8
2022-09-24T15:32:00.328Z,41.7
2022-09-24T15:37:18.813Z,42.1
2022-09-24T15:42:37.613Z,41.5
2022-09-24T15:47:55.788Z,42.1
2022-09-24T15:53:14.264Z,41.4
2022-09-24T15:58:32.514Z,41.5
2022-09-24T16:03:50.419Z,41.4
2022-09-24T16:09:09.366Z,41.9
2022-09-24T16:14:27.352Z,42.2
2022-09-24T16:19:45.822Z,42.3
2022-09-24T16:25:04.597Z,42.3
2022-09-24T16:30:23.113Z,41.9
2022-09-24T16:35:41.582Z,42.5
2022-09-24T16:41:00.320Z,42.2
2022-09-24T16:46:21.851Z,41.7
2022-09-24T16:51:40.410Z,41.6
2022-09-24T16:56:59.168Z,42.5
2022-09-24T17:02:17.997Z,42.5
2022-09-24T17:07:36.244Z,41.7
2022-09-24T17:12:55.012Z,41.6
2022-09-24T17:18:13.230Z,42.4
2022-09-24T17:23:31.411Z,41.9
2022-09-24T17:28:49.336Z,42.2
2022-09-24T17:34:07.399Z,42.1
2022-09-24T17:39:25.290Z,42.6
2022-09-24T17:44:44.051Z,41.9
2022-09-24T17:50:02.660Z,42.6
2022-09-24T17:55:20.560Z,42
2022-09-24T18:00:38.758Z,41.9
2022-09-24T18:05:56.983Z,41.8
2022-09-24T18:11:15.441Z,42.6
2022-09-24T18:16:33.943Z,42.5
2022-09-24T18:21:52.137Z,42
2022-09-24T18:27:10.870Z,42
2022-09-24T18:32:29.349Z,42
2022-09-24T18:37:47.763Z,42.2
2022-09-24T18:43:06.504Z,42.8
2022-09-24T18:48:25.003Z,42.7
2022-09-24T18:53:42.998Z,42
2022-09-24T18:59:08.683Z,42.9
2022-09-24T19:04:33.251Z,42.5
2022-09-24T19:09:52.122Z,42.4
2022-09-24T19:15:10.570Z,42.8
2022-09-24T19:20:29.049Z,42.8
2022-09-24T19:25:47.281Z,42.3
2022-09-24T19:31:05.832Z,42.7
2022-09-24T19:36:24.163Z,42.2
2022-09-24T19:41:42.947Z,42
2022-09-24T19:47:01.681Z,42.8
2022-09-24T19:52:20.157Z,42.2
2022-09-24T19:57:38.405Z,42
2022-09-24T20:02:56.798Z,42.1
2022-09-24T20:08:15.061Z,42
2022-09-24T20:13:33.280Z,42
2022-09-24T20:18:51.485Z,42.9
2022-09-24T20:24:09.894Z,41.8
2022-09-24T20:29:28.246Z,42
2022-09-24T20:34:46.703Z,42.1
2022-09-24T20:40:05.192Z,42.9
2022-09-24T20:45:23.804Z,42.2
2022-09-24T20:50:42.342Z,42.1
2022-09-24T20:56:00.542Z,42.2
2022-09-24T21:01:19.074Z,42.2
2022-09-24T21:06:37.537Z,42.9
2022-09-24T21:11:56.017Z,42.9
2022-09-24T21:17:14.254Z,42.9
2022-09-24T21:22:32.705Z,42.8
2022-09-24T21:27:51.187Z,42.1
2022-09-24T21:33:09.412Z,42.1
2022-09-24T21:38:27.594Z,42.9
2022-09-24T21:43:45.797Z,42.4
2022-09-24T21:49:04.680Z,42.2
2022-09-24T21:54:23.138Z,42.1
2022-09-24T21:59:41.626Z,42.1
2022-09-24T22:05:00.299Z,42.9
2022-09-24T22:10:18.206Z,42.8
2022-09-24T22:15:36.686Z,42.1
2022-09-24T22:20:55.470Z,42.2
2022-09-24T22:26:14.220Z,42.8
2022-09-24T22:31:32.694Z,42.1
2022-09-24T22:36:50.658Z,42.2
2022-09-24T22:42:09.395Z,42.9
2022-09-24T22:47:28.159Z,42.2
2022-09-24T22:52:46.947Z,43
2022-09-24T22:58:05.406Z,42.3
2022-09-24T23:03:23.899Z,42.2
2022-09-24T23:08:42.639Z,42.9
2022-09-24T23:14:01.113Z,42.4
2022-09-24T23:19:19.598Z,42.1
2022-09-24T23:24:38.392Z,42.1
2022-09-24T23:29:57.126Z,42.8
2022-09-24T23:35:15.338Z,43
2022-09-24T23:40:34.067Z,43
2022-09-24T23:45:52.352Z,42.9
2022-09-24T23:51:10.918Z,42.9
2022-09-24T23:56:29.710Z,42.6
